NCAR-RAP Real-Time Weather Data

Output produced by METARs form (12 May 2021  12:00 UTC)
found at http://weather.rap.ucar.edu/surface/
 
KPBG 121153Z AUTO VRB03KT 10SM CLR 11/04 A3007 RMK AO2 SLP184 60000 70003 T01060039 10106 20061 52025
KPBG 121053Z AUTO 30003KT 10SM OVC085 09/04 A3005 RMK AO2 SLP177 T00940044
KPBG 120953Z AUTO 25003KT 10SM FEW047 BKN055 OVC070 07/04 A3002 RMK AO2 SLP167 T00720039
KPBG 120853Z AUTO 00000KT 10SM OVC060 07/04 A3000 RMK AO2 SLP159 60000 T00720039 53012
KPBG 120753Z AUTO 00000KT 10SM OVC055 07/04 A2998 RMK AO2 RAE00 SLP153 P0000 T00720039
KPBG 120653Z AUTO 29008KT 250V320 10SM -RA OVC036 07/03 A2997 RMK AO2 RAE01B45 SLP150 P0000 T00670028
KPBG 120553Z AUTO 28003KT 10SM -RA OVC038 06/03 A2996 RMK AO2 SLP147 P0001 60003 T00610028 10078 20056 51002
KPBG 120453Z AUTO VRB03KT 10SM -RA OVC038 07/02 A2996 RMK AO2 RAE10B29 SLP147 P0001 T00670022 401500050
KPBG 120353Z AUTO VRB04KT 10SM -RA FEW030 OVC038 07/03 A2996 RMK AO2 RAB00 SLP148 P0001 T00670028
KPBG 120253Z AUTO 24005KT 10SM BKN035 OVC055 07/02 A2996 RMK AO2 SLP146 T00720022 50002
KPBG 120153Z AUTO VRB04KT 10SM BKN042 OVC080 07/02 A2996 RMK AO2 SLP147 T00720022
KPBG 120053Z AUTO 10SM OVC100 07/02 A2996 RMK AO2 SLP146 T00720022
KPBG 112353Z AUTO VRB04KT 10SM OVC095 08/02 A2995 RMK AO2 RAE2254 SLP144 P0000 60000 T00780022 10144 20078 51018
KPBG 112253Z AUTO 27007KT 260V320 10SM -RA FEW041 BKN060 OVC100 08/02 A2994 RMK AO2 RAB36 SLP140 P0000 T00830022
KPBG 112153Z AUTO 32011G17KT 10SM FEW050 FEW065 OVC090 10/02 A2992 RMK AO2 SLP133 T01000017
KPBG 112053Z AUTO 27009G20KT 240V310 10SM BKN070 BKN090 12/M02 A2990 RMK AO2 SLP125 60000 T01221022 53000